sensor_id;sensor_type;location;lat;lon;timestamp;pressure;altitude;pressure_sealevel;temperature;humidity
69535;BME280;56754;51.568;5.048;2024-01-16T00:01:34;100907.50;;;8.59;61.09
69535;BME280;56754;51.568;5.048;2024-01-16T00:03:59;100906.19;;;8.56;61.46
69535;BME280;56754;51.568;5.048;2024-01-16T00:06:25;100905.09;;;8.57;61.66
69535;BME280;56754;51.568;5.048;2024-01-16T00:08:50;100901.19;;;8.55;60.73
69535;BME280;56754;51.568;5.048;2024-01-16T00:11:15;100905.50;;;8.51;60.62
69535;BME280;56754;51.568;5.048;2024-01-16T00:13:40;100910.63;;;8.47;61.57
69535;BME280;56754;51.568;5.048;2024-01-16T00:16:06;100908.22;;;8.46;61.47
69535;BME280;56754;51.568;5.048;2024-01-16T00:18:31;100912.78;;;8.45;60.59
69535;BME280;56754;51.568;5.048;2024-01-16T00:20:56;100923.22;;;8.41;60.79
69535;BME280;56754;51.568;5.048;2024-01-16T00:23:22;100924.59;;;8.39;61.63
69535;BME280;56754;51.568;5.048;2024-01-16T00:25:47;100917.66;;;8.38;61.54
69535;BME280;56754;51.568;5.048;2024-01-16T00:28:12;100917.94;;;8.36;61.78
69535;BME280;56754;51.568;5.048;2024-01-16T00:30:37;100912.22;;;8.29;59.98
69535;BME280;56754;51.568;5.048;2024-01-16T00:33:03;100912.81;;;8.26;62.31
69535;BME280;56754;51.568;5.048;2024-01-16T00:35:28;100915.47;;;8.26;61.62
69535;BME280;56754;51.568;5.048;2024-01-16T00:37:54;100908.25;;;8.27;62.35
69535;BME280;56754;51.568;5.048;2024-01-16T00:40:19;100919.19;;;8.25;61.98
69535;BME280;56754;51.568;5.048;2024-01-16T00:42:44;100919.19;;;8.25;61.69
69535;BME280;56754;51.568;5.048;2024-01-16T00:45:10;100927.69;;;8.27;62.88
69535;BME280;56754;51.568;5.048;2024-01-16T00:47:35;100934.63;;;8.28;62.27
69535;BME280;56754;51.568;5.048;2024-01-16T00:50:01;100943.38;;;8.29;62.98
69535;BME280;56754;51.568;5.048;2024-01-16T00:52:26;100938.06;;;8.29;62.88
69535;BME280;56754;51.568;5.048;2024-01-16T00:54:52;100929.28;;;8.28;62.59
69535;BME280;56754;51.568;5.048;2024-01-16T00:57:17;100934.38;;;8.25;62.24
69535;BME280;56754;51.568;5.048;2024-01-16T00:59:42;100946.91;;;8.24;62.05
69535;BME280;56754;51.568;5.048;2024-01-16T01:02:08;100939.50;;;8.21;62.41
69535;BME280;56754;51.568;5.048;2024-01-16T01:04:33;100941.66;;;8.19;62.50
69535;BME280;56754;51.568;5.048;2024-01-16T01:06:58;100937.22;;;8.14;61.88
69535;BME280;56754;51.568;5.048;2024-01-16T01:09:24;100926.34;;;8.11;62.00
69535;BME280;56754;51.568;5.048;2024-01-16T01:11:49;100924.75;;;8.10;61.98
69535;BME280;56754;51.568;5.048;2024-01-16T01:14:14;100924.75;;;8.10;63.06
69535;BME280;56754;51.568;5.048;2024-01-16T01:16:39;100921.03;;;8.11;62.55
69535;BME280;56754;51.568;5.048;2024-01-16T01:19:05;100922.09;;;8.10;62.63
69535;BME280;56754;51.568;5.048;2024-01-16T01:21:30;100928.19;;;8.10;63.11
69535;BME280;56754;51.568;5.048;2024-01-16T01:23:55;100925.53;;;8.10;62.35
69535;BME280;56754;51.568;5.048;2024-01-16T01:26:21;100921.88;;;8.06;61.20
69535;BME280;56754;51.568;5.048;2024-01-16T01:28:46;100921.69;;;8.03;62.80
69535;BME280;56754;51.568;5.048;2024-01-16T01:31:12;100922.19;;;8.05;62.95
69535;BME280;56754;51.568;5.048;2024-01-16T01:33:37;100931.75;;;8.06;63.11
69535;BME280;56754;51.568;5.048;2024-01-16T01:36:03;100954.63;;;8.07;63.70
69535;BME280;56754;51.568;5.048;2024-01-16T01:38:28;100953.56;;;8.08;64.01
69535;BME280;56754;51.568;5.048;2024-01-16T01:40:53;100955.13;;;8.09;63.90
69535;BME280;56754;51.568;5.048;2024-01-16T01:43:22;100954.03;;;8.10;63.70
69535;BME280;56754;51.568;5.048;2024-01-16T01:48:21;100951.38;;;8.10;63.47
69535;BME280;56754;51.568;5.048;2024-01-16T01:50:47;100944.47;;;8.09;63.30
69535;BME280;56754;51.568;5.048;2024-01-16T01:53:12;100952.16;;;8.10;63.77
69535;BME280;56754;51.568;5.048;2024-01-16T01:55:38;100951.38;;;8.10;63.72
69535;BME280;56754;51.568;5.048;2024-01-16T01:58:03;100946.06;;;8.10;64.04
69535;BME280;56754;51.568;5.048;2024-01-16T02:00:29;100941.50;;;8.10;63.75
69535;BME280;56754;51.568;5.048;2024-01-16T02:02:54;100944.19;;;8.10;62.92
69535;BME280;56754;51.568;5.048;2024-01-16T02:05:19;100948.22;;;8.08;62.87
69535;BME280;56754;51.568;5.048;2024-01-16T02:07:46;100946.16;;;8.05;62.63
69535;BME280;56754;51.568;5.048;2024-01-16T02:10:11;100943.75;;;8.03;62.78
69535;BME280;56754;51.568;5.048;2024-01-16T02:12:36;100948.88;;;8.00;62.70
69535;BME280;56754;51.568;5.048;2024-01-16T02:15:02;100947.28;;;7.98;63.17
69535;BME280;56754;51.568;5.048;2024-01-16T02:17:27;100946.50;;;7.98;63.21
69535;BME280;56754;51.568;5.048;2024-01-16T02:19:52;100934.78;;;7.99;63.92
69535;BME280;56754;51.568;5.048;2024-01-16T02:22:20;100933.97;;;7.98;63.30
69535;BME280;56754;51.568;5.048;2024-01-16T02:24:49;100928.94;;;7.97;63.30
69535;BME280;56754;51.568;5.048;2024-01-16T02:27:14;100934.28;;;7.97;64.07
69535;BME280;56754;51.568;5.048;2024-01-16T02:29:41;100932.13;;;7.99;64.07
69535;BME280;56754;51.568;5.048;2024-01-16T02:32:06;100931.81;;;8.01;64.10
69535;BME280;56754;51.568;5.048;2024-01-16T02:34:31;100930.97;;;8.05;64.66
69535;BME280;56754;51.568;5.048;2024-01-16T02:36:57;100930.94;;;8.24;64.43
69535;BME280;56754;51.568;5.048;2024-01-16T02:39:22;100923.03;;;8.52;62.73
69535;BME280;56754;51.568;5.048;2024-01-16T02:41:47;100928.91;;;8.81;61.28
69535;BME280;56754;51.568;5.048;2024-01-16T02:44:12;100923.91;;;9.07;60.47
69535;BME280;56754;51.568;5.048;2024-01-16T02:46:38;100925.31;;;9.32;60.15
69535;BME280;56754;51.568;5.048;2024-01-16T02:49:03;100925.34;;;9.55;59.48
69535;BME280;56754;51.568;5.048;2024-01-16T02:51:28;100929.47;;;9.75;58.64
69535;BME280;56754;51.568;5.048;2024-01-16T02:53:54;100925.38;;;9.91;57.89
69535;BME280;56754;51.568;5.048;2024-01-16T02:56:19;100929.69;;;10.01;57.44
69535;BME280;56754;51.568;5.048;2024-01-16T02:58:44;100930.66;;;10.05;57.41
69535;BME280;56754;51.568;5.048;2024-01-16T03:01:09;100925.03;;;10.07;57.09
69535;BME280;56754;51.568;5.048;2024-01-16T03:03:35;100934.44;;;10.04;57.21
69535;BME280;56754;51.568;5.048;2024-01-16T03:06:00;100939.59;;;10.00;57.44
69535;BME280;56754;51.568;5.048;2024-01-16T03:08:25;100930.91;;;9.95;57.62
69535;BME280;56754;51.568;5.048;2024-01-16T03:10:51;100929.72;;;9.87;57.74
69535;BME280;56754;51.568;5.048;2024-01-16T03:13:16;100922.47;;;9.79;58.34
69535;BME280;56754;51.568;5.048;2024-01-16T03:15:41;100931.34;;;9.74;58.31
69535;BME280;56754;51.568;5.048;2024-01-16T03:18:07;100929.88;;;9.68;58.71
69535;BME280;56754;51.568;5.048;2024-01-16T03:20:32;100932.47;;;9.60;58.78
69535;BME280;56754;51.568;5.048;2024-01-16T03:22:57;100931.28;;;9.52;59.41
69535;BME280;56754;51.568;5.048;2024-01-16T03:25:23;100933.59;;;9.45;58.82
69535;BME280;56754;51.568;5.048;2024-01-16T03:27:49;100937.72;;;9.37;58.97
69535;BME280;56754;51.568;5.048;2024-01-16T03:30:14;100929.03;;;9.31;59.49
69535;BME280;56754;51.568;5.048;2024-01-16T03:32:39;100934.78;;;9.25;59.11
69535;BME280;56754;51.568;5.048;2024-01-16T03:35:06;100926.88;;;9.20;59.69
69535;BME280;56754;51.568;5.048;2024-01-16T03:37:31;100920.06;;;9.14;59.33
69535;BME280;56754;51.568;5.048;2024-01-16T03:39:57;100919.38;;;9.08;59.06
69535;BME280;56754;51.568;5.048;2024-01-16T03:42:22;100910.69;;;9.02;59.20
69535;BME280;56754;51.568;5.048;2024-01-16T03:44:48;100905.16;;;8.99;59.38
69535;BME280;56754;51.568;5.048;2024-01-16T03:47:13;100909.00;;;8.93;59.32
69535;BME280;56754;51.568;5.048;2024-01-16T03:49:39;100905.63;;;8.87;59.47
69535;BME280;56754;51.568;5.048;2024-01-16T03:52:04;100903.38;;;8.80;59.58
69535;BME280;56754;51.568;5.048;2024-01-16T03:54:30;100904.53;;;8.74;59.95
69535;BME280;56754;51.568;5.048;2024-01-16T03:56:56;100902.78;;;8.70;59.92
69535;BME280;56754;51.568;5.048;2024-01-16T03:59:21;100899.41;;;8.64;59.90
69535;BME280;56754;51.568;5.048;2024-01-16T04:01:46;100893.06;;;8.60;59.84
69535;BME280;56754;51.568;5.048;2024-01-16T04:04:12;100895.84;;;8.55;60.04
69535;BME280;56754;51.568;5.048;2024-01-16T04:06:37;100896.72;;;8.50;59.83
69535;BME280;56754;51.568;5.048;2024-01-16T04:09:03;100891.47;;;8.45;60.46
69535;BME280;56754;51.568;5.048;2024-01-16T04:11:29;100890.19;;;8.42;60.98
69535;BME280;56754;51.568;5.048;2024-01-16T04:13:55;100889.00;;;8.49;62.79
69535;BME280;56754;51.568;5.048;2024-01-16T04:16:20;100889.72;;;8.68;60.96
69535;BME280;56754;51.568;5.048;2024-01-16T04:18:46;100880.78;;;8.92;59.84
69535;BME280;56754;51.568;5.048;2024-01-16T04:21:11;100891.53;;;9.14;59.12
69535;BME280;56754;51.568;5.048;2024-01-16T04:23:37;100885.97;;;9.38;58.52
69535;BME280;56754;51.568;5.048;2024-01-16T04:26:02;100882.06;;;9.58;57.82
69535;BME280;56754;51.568;5.048;2024-01-16T04:28:27;100883.00;;;9.76;57.27
69535;BME280;56754;51.568;5.048;2024-01-16T04:30:53;100881.56;;;9.92;56.60
69535;BME280;56754;51.568;5.048;2024-01-16T04:33:18;100884.66;;;10.08;56.08
69535;BME280;56754;51.568;5.048;2024-01-16T04:35:44;100880.47;;;10.16;56.00
69535;BME280;56754;51.568;5.048;2024-01-16T04:38:09;100886.31;;;10.18;55.67
69535;BME280;56754;51.568;5.048;2024-01-16T04:40:34;100883.16;;;10.16;55.41
69535;BME280;56754;51.568;5.048;2024-01-16T04:43:00;100885.94;;;10.11;55.84
69535;BME280;56754;51.568;5.048;2024-01-16T04:45:25;100878.84;;;10.06;55.84
69535;BME280;56754;51.568;5.048;2024-01-16T04:47:50;100880.06;;;10.00;55.73
69535;BME280;56754;51.568;5.048;2024-01-16T04:50:16;100878.59;;;9.94;56.10
69535;BME280;56754;51.568;5.048;2024-01-16T04:52:41;100880.41;;;9.85;56.09
69535;BME280;56754;51.568;5.048;2024-01-16T04:55:06;100879.53;;;9.75;56.64
69535;BME280;56754;51.568;5.048;2024-01-16T04:57:32;100880.56;;;9.66;57.02
69535;BME280;56754;51.568;5.048;2024-01-16T04:59:57;100874.88;;;9.59;57.67
69535;BME280;56754;51.568;5.048;2024-01-16T05:02:24;100873.41;;;9.52;57.61
69535;BME280;56754;51.568;5.048;2024-01-16T05:04:49;100886.06;;;9.47;57.95
69535;BME280;56754;51.568;5.048;2024-01-16T05:07:15;100874.53;;;9.38;58.04
69535;BME280;56754;51.568;5.048;2024-01-16T05:09:40;100876.00;;;9.30;58.21
69535;BME280;56754;51.568;5.048;2024-01-16T05:12:06;100866.81;;;9.22;58.11
69535;BME280;56754;51.568;5.048;2024-01-16T05:14:31;100867.53;;;9.14;58.37
69535;BME280;56754;51.568;5.048;2024-01-16T05:16:57;100863.38;;;9.08;58.39
69535;BME280;56754;51.568;5.048;2024-01-16T05:19:22;100852.84;;;9.03;58.56
69535;BME280;56754;51.568;5.048;2024-01-16T05:21:47;100851.34;;;8.97;58.47
69535;BME280;56754;51.568;5.048;2024-01-16T05:24:12;100852.53;;;8.91;58.46
69535;BME280;56754;51.568;5.048;2024-01-16T05:26:38;100850.34;;;8.93;59.81
69535;BME280;56754;51.568;5.048;2024-01-16T05:29:03;100856.47;;;9.07;58.57
69535;BME280;56754;51.568;5.048;2024-01-16T05:31:28;100843.50;;;9.28;57.56
69535;BME280;56754;51.568;5.048;2024-01-16T05:33:54;100850.78;;;9.50;57.03
69535;BME280;56754;51.568;5.048;2024-01-16T05:36:19;100844.97;;;9.70;56.26
69535;BME280;56754;51.568;5.048;2024-01-16T05:38:44;100850.91;;;9.90;55.73
69535;BME280;56754;51.568;5.048;2024-01-16T05:41:09;100844.13;;;10.06;55.34
69535;BME280;56754;51.568;5.048;2024-01-16T05:43:35;100851.88;;;10.16;54.68
69535;BME280;56754;51.568;5.048;2024-01-16T05:46:00;100844.34;;;10.18;54.45
69535;BME280;56754;51.568;5.048;2024-01-16T05:48:25;100839.63;;;10.15;55.25
69535;BME280;56754;51.568;5.048;2024-01-16T05:50:51;100835.50;;;10.09;55.02
69535;BME280;56754;51.568;5.048;2024-01-16T05:53:16;100835.63;;;10.04;55.22
69535;BME280;56754;51.568;5.048;2024-01-16T05:55:41;100836.53;;;9.99;55.03
69535;BME280;56754;51.568;5.048;2024-01-16T05:58:06;100829.44;;;9.95;55.36
69535;BME280;56754;51.568;5.048;2024-01-16T06:00:32;100832.22;;;9.90;55.51
69535;BME280;56754;51.568;5.048;2024-01-16T06:02:57;100827.81;;;9.85;55.44
69535;BME280;56754;51.568;5.048;2024-01-16T06:05:22;100826.03;;;9.80;55.66
69535;BME280;56754;51.568;5.048;2024-01-16T06:07:47;100831.22;;;9.77;54.66
69535;BME280;56754;51.568;5.048;2024-01-16T06:10:13;100831.38;;;9.80;54.36
69535;BME280;56754;51.568;5.048;2024-01-16T06:12:38;100832.22;;;9.90;54.56
69535;BME280;56754;51.568;5.048;2024-01-16T06:15:04;100824.88;;;9.95;54.42
69535;BME280;56754;51.568;5.048;2024-01-16T06:17:29;100820.28;;;10.10;54.44
69535;BME280;56754;51.568;5.048;2024-01-16T06:19:54;100824.22;;;10.12;54.68
69535;BME280;56754;51.568;5.048;2024-01-16T06:22:20;100823.91;;;10.14;54.43
69535;BME280;56754;51.568;5.048;2024-01-16T06:24:45;100821.06;;;10.10;54.68
69535;BME280;56754;51.568;5.048;2024-01-16T06:27:10;100822.28;;;10.04;55.36
69535;BME280;56754;51.568;5.048;2024-01-16T06:29:36;100820.81;;;9.98;55.47
69535;BME280;56754;51.568;5.048;2024-01-16T06:32:01;100830.06;;;9.92;55.46
69535;BME280;56754;51.568;5.048;2024-01-16T06:34:27;100829.06;;;9.88;55.31
69535;BME280;56754;51.568;5.048;2024-01-16T06:36:52;100833.44;;;9.84;55.55
69535;BME280;56754;51.568;5.048;2024-01-16T06:39:18;100837.50;;;9.81;55.63
69535;BME280;56754;51.568;5.048;2024-01-16T06:41:43;100834.38;;;9.79;54.26
69535;BME280;56754;51.568;5.048;2024-01-16T06:44:08;100826.72;;;9.86;54.30
69535;BME280;56754;51.568;5.048;2024-01-16T06:46:34;100847.81;;;9.96;54.36
69535;BME280;56754;51.568;5.048;2024-01-16T06:48:59;100843.03;;;10.07;54.04
69535;BME280;56754;51.568;5.048;2024-01-16T06:51:24;100842.75;;;10.17;53.78
69535;BME280;56754;51.568;5.048;2024-01-16T06:53:50;100842.63;;;10.22;53.90
69535;BME280;56754;51.568;5.048;2024-01-16T06:56:15;100849.09;;;10.21;53.92
69535;BME280;56754;51.568;5.048;2024-01-16T06:58:40;100833.97;;;10.17;54.93
69535;BME280;56754;51.568;5.048;2024-01-16T07:01:05;100837.69;;;10.07;54.79
69535;BME280;56754;51.568;5.048;2024-01-16T07:03:31;100839.88;;;10.05;54.27
69535;BME280;56754;51.568;5.048;2024-01-16T07:05:56;100839.06;;;10.05;53.71
69535;BME280;56754;51.568;5.048;2024-01-16T07:08:21;100845.56;;;10.12;54.03
69535;BME280;56754;51.568;5.048;2024-01-16T07:10:47;100851.59;;;10.18;53.99
69535;BME280;56754;51.568;5.048;2024-01-16T07:13:12;100851.44;;;10.23;53.75
69535;BME280;56754;51.568;5.048;2024-01-16T07:15:37;100856.84;;;10.32;53.33
69535;BME280;56754;51.568;5.048;2024-01-16T07:18:03;100857.69;;;10.41;52.73
69535;BME280;56754;51.568;5.048;2024-01-16T07:20:28;100856.66;;;10.51;52.75
69535;BME280;56754;51.568;5.048;2024-01-16T07:22:53;100857.34;;;10.65;52.05
69535;BME280;56754;51.568;5.048;2024-01-16T07:25:19;100864.16;;;10.80;52.03
69535;BME280;56754;51.568;5.048;2024-01-16T07:27:44;100860.28;;;10.95;51.22
69535;BME280;56754;51.568;5.048;2024-01-16T07:30:10;100855.28;;;11.10;51.59
69535;BME280;56754;51.568;5.048;2024-01-16T07:32:35;100860.94;;;11.09;51.44
69535;BME280;56754;51.568;5.048;2024-01-16T07:35:01;100856.84;;;11.11;50.24
69535;BME280;56754;51.568;5.048;2024-01-16T07:37:27;100858.75;;;11.20;50.71
69535;BME280;56754;51.568;5.048;2024-01-16T07:39:52;100865.69;;;11.29;50.33
69535;BME280;56754;51.568;5.048;2024-01-16T07:42:17;100868.09;;;11.39;50.05
69535;BME280;56754;51.568;5.048;2024-01-16T07:44:43;100866.97;;;11.49;49.89
69535;BME280;56754;51.568;5.048;2024-01-16T07:47:08;100873.59;;;11.60;49.63
69535;BME280;56754;51.568;5.048;2024-01-16T07:49:34;100873.75;;;11.73;49.70
69535;BME280;56754;51.568;5.048;2024-01-16T07:51:59;100881.16;;;11.84;49.36
69535;BME280;56754;51.568;5.048;2024-01-16T07:54:25;100878.50;;;11.93;49.15
69535;BME280;56754;51.568;5.048;2024-01-16T07:56:50;100877.38;;;12.03;48.54
69535;BME280;56754;51.568;5.048;2024-01-16T07:59:15;100877.06;;;12.13;48.70
69535;BME280;56754;51.568;5.048;2024-01-16T08:01:40;100870.25;;;12.24;48.57
69535;BME280;56754;51.568;5.048;2024-01-16T08:04:06;100874.19;;;12.36;48.58
69535;BME280;56754;51.568;5.048;2024-01-16T08:06:31;100878.88;;;12.47;48.34
69535;BME280;56754;51.568;5.048;2024-01-16T08:08:56;100873.97;;;12.58;48.17
69535;BME280;56754;51.568;5.048;2024-01-16T08:11:22;100879.59;;;12.65;47.44
69535;BME280;56754;51.568;5.048;2024-01-16T08:13:47;100875.63;;;12.71;47.77
69535;BME280;56754;51.568;5.048;2024-01-16T08:16:12;100880.97;;;12.80;47.21
69535;BME280;56754;51.568;5.048;2024-01-16T08:18:38;100882.69;;;12.85;46.61
69535;BME280;56754;51.568;5.048;2024-01-16T08:21:03;100878.72;;;12.91;46.37
69535;BME280;56754;51.568;5.048;2024-01-16T08:23:28;100894.28;;;12.97;46.22
69535;BME280;56754;51.568;5.048;2024-01-16T08:25:54;100889.06;;;13.01;45.89
69535;BME280;56754;51.568;5.048;2024-01-16T08:28:19;100882.25;;;13.04;46.04
69535;BME280;56754;51.568;5.048;2024-01-16T08:30:44;100880.97;;;13.10;45.44
69535;BME280;56754;51.568;5.048;2024-01-16T08:33:11;100880.31;;;13.13;44.89
69535;BME280;56754;51.568;5.048;2024-01-16T08:35:36;100870.97;;;13.19;45.50
69535;BME280;56754;51.568;5.048;2024-01-16T08:38:02;100873.19;;;13.26;45.52
69535;BME280;56754;51.568;5.048;2024-01-16T08:40:27;100876.13;;;13.33;45.33
69535;BME280;56754;51.568;5.048;2024-01-16T08:42:52;100882.22;;;13.42;45.28
69535;BME280;56754;51.568;5.048;2024-01-16T08:45:18;100886.28;;;13.48;44.59
69535;BME280;56754;51.568;5.048;2024-01-16T08:47:43;100881.06;;;13.52;44.69
69535;BME280;56754;51.568;5.048;2024-01-16T08:50:08;100888.59;;;13.58;45.21
69535;BME280;56754;51.568;5.048;2024-01-16T08:52:34;100881.44;;;13.62;45.40
69535;BME280;56754;51.568;5.048;2024-01-16T08:54:59;100886.75;;;13.71;45.38
69535;BME280;56754;51.568;5.048;2024-01-16T08:57:24;100888.13;;;13.77;44.43
69535;BME280;56754;51.568;5.048;2024-01-16T08:59:49;100886.38;;;13.81;44.74
69535;BME280;56754;51.568;5.048;2024-01-16T09:02:15;100885.03;;;13.87;44.48
69535;BME280;56754;51.568;5.048;2024-01-16T09:04:40;100884.81;;;13.93;43.98
69535;BME280;56754;51.568;5.048;2024-01-16T09:07:05;100884.16;;;13.96;44.81
69535;BME280;56754;51.568;5.048;2024-01-16T09:09:31;100877.81;;;14.00;45.20
69535;BME280;56754;51.568;5.048;2024-01-16T09:11:56;100871.44;;;14.05;44.90
69535;BME280;56754;51.568;5.048;2024-01-16T09:14:21;100875.03;;;14.09;45.03
69535;BME280;56754;51.568;5.048;2024-01-16T09:16:46;100867.88;;;14.13;45.17
69535;BME280;56754;51.568;5.048;2024-01-16T09:19:12;100870.03;;;14.20;45.19
69535;BME280;56754;51.568;5.048;2024-01-16T09:21:37;100870.59;;;14.25;44.58
69535;BME280;56754;51.568;5.048;2024-01-16T09:24:02;100875.31;;;14.28;44.65
69535;BME280;56754;51.568;5.048;2024-01-16T09:26:28;100873.53;;;14.32;44.37
69535;BME280;56754;51.568;5.048;2024-01-16T09:28:56;100878.25;;;14.36;44.75
69535;BME280;56754;51.568;5.048;2024-01-16T09:31:21;100860.19;;;14.36;44.68
69535;BME280;56754;51.568;5.048;2024-01-16T09:33:46;100860.97;;;14.37;44.24
69535;BME280;56754;51.568;5.048;2024-01-16T09:36:12;100868.72;;;14.38;44.35
69535;BME280;56754;51.568;5.048;2024-01-16T09:38:37;100873.34;;;14.38;44.07
69535;BME280;56754;51.568;5.048;2024-01-16T09:41:02;100867.28;;;14.41;44.20
69535;BME280;56754;51.568;5.048;2024-01-16T09:43:29;100876.78;;;14.38;43.88
69535;BME280;56754;51.568;5.048;2024-01-16T09:46:00;100874.44;;;14.37;44.14
69535;BME280;56754;51.568;5.048;2024-01-16T09:48:28;100875.56;;;14.36;43.94
69535;BME280;56754;51.568;5.048;2024-01-16T09:50:53;100869.06;;;14.37;43.17
69535;BME280;56754;51.568;5.048;2024-01-16T09:53:19;100872.88;;;14.36;43.78
69535;BME280;56754;51.568;5.048;2024-01-16T09:55:45;100868.63;;;14.34;44.24
69535;BME280;56754;51.568;5.048;2024-01-16T09:58:12;100867.16;;;14.37;44.39
69535;BME280;56754;51.568;5.048;2024-01-16T10:00:38;100864.59;;;14.41;44.54
69535;BME280;56754;51.568;5.048;2024-01-16T10:03:04;100873.13;;;14.55;44.66
69535;BME280;56754;51.568;5.048;2024-01-16T10:05:30;100864.19;;;14.63;43.15
69535;BME280;56754;51.568;5.048;2024-01-16T10:07:56;100865.97;;;14.59;43.50
69535;BME280;56754;51.568;5.048;2024-01-16T10:10:22;100864.84;;;14.60;44.07
69535;BME280;56754;51.568;5.048;2024-01-16T10:12:48;100863.69;;;14.49;44.09
69535;BME280;56754;51.568;5.048;2024-01-16T10:15:15;100862.56;;;14.38;45.42
69535;BME280;56754;51.568;5.048;2024-01-16T10:17:42;100857.69;;;14.19;47.79
69535;BME280;56754;51.568;5.048;2024-01-16T10:20:11;100854.53;;;14.04;47.31
69535;BME280;56754;51.568;5.048;2024-01-16T10:22:36;100846.63;;;13.87;47.75
69535;BME280;56754;51.568;5.048;2024-01-16T10:25:12;100841.75;;;13.68;48.34
69535;BME280;56754;51.568;5.048;2024-01-16T10:27:39;100843.25;;;13.57;48.69
69535;BME280;56754;51.568;5.048;2024-01-16T10:30:05;100829.31;;;13.42;49.55
69535;BME280;56754;51.568;5.048;2024-01-16T10:32:36;100830.53;;;13.24;49.86
69535;BME280;56754;51.568;5.048;2024-01-16T10:35:11;100838.28;;;12.96;44.96
69535;BME280;56754;51.568;5.048;2024-01-16T10:37:55;100840.47;;;12.73;46.66
69535;BME280;56754;51.568;5.048;2024-01-16T10:40:23;100844.94;;;12.60;46.50
69535;BME280;56754;51.568;5.048;2024-01-16T10:43:02;100849.72;;;12.46;46.59
69535;BME280;56754;51.568;5.048;2024-01-16T10:45:28;100836.84;;;12.31;47.13
69535;BME280;56754;51.568;5.048;2024-01-16T10:48:03;100824.91;;;12.19;47.22
69535;BME280;56754;51.568;5.048;2024-01-16T10:50:29;100827.91;;;12.09;47.67
69535;BME280;56754;51.568;5.048;2024-01-16T10:52:55;100823.53;;;11.96;47.54
69535;BME280;56754;51.568;5.048;2024-01-16T10:55:22;100825.75;;;11.85;48.27
69535;BME280;56754;51.568;5.048;2024-01-16T10:57:49;100818.00;;;11.75;48.77
69535;BME280;56754;51.568;5.048;2024-01-16T11:00:18;100812.66;;;11.66;48.28
69535;BME280;56754;51.568;5.048;2024-01-16T11:02:49;100822.41;;;11.53;49.35
69535;BME280;56754;51.568;5.048;2024-01-16T11:05:16;100813.59;;;11.44;49.15
69535;BME280;56754;51.568;5.048;2024-01-16T11:07:42;100815.50;;;11.35;49.76
69535;BME280;56754;51.568;5.048;2024-01-16T11:10:09;100811.88;;;11.31;50.18
69535;BME280;56754;51.568;5.048;2024-01-16T11:12:38;100812.03;;;11.26;50.48
69535;BME280;56754;51.568;5.048;2024-01-16T11:15:05;100801.47;;;11.21;50.14
69535;BME280;56754;51.568;5.048;2024-01-16T11:17:32;100806.03;;;11.11;50.71
69535;BME280;56754;51.568;5.048;2024-01-16T11:19:58;100802.41;;;11.07;51.08
69535;BME280;56754;51.568;5.048;2024-01-16T11:22:24;100801.78;;;11.02;50.72
69535;BME280;56754;51.568;5.048;2024-01-16T11:25:12;100799.22;;;10.97;52.20
69535;BME280;56754;51.568;5.048;2024-01-16T11:27:37;100805.84;;;10.90;51.23
69535;BME280;56754;51.568;5.048;2024-01-16T11:30:08;100798.13;;;10.80;51.04
69535;BME280;56754;51.568;5.048;2024-01-16T11:32:40;100803.72;;;10.70;51.18
69535;BME280;56754;51.568;5.048;2024-01-16T11:35:10;100805.28;;;10.62;51.01
69535;BME280;56754;51.568;5.048;2024-01-16T11:37:36;100801.97;;;10.57;50.48
69535;BME280;56754;51.568;5.048;2024-01-16T11:42:44;100792.66;;;10.45;51.06
69535;BME280;56754;51.568;5.048;2024-01-16T11:48:12;100807.13;;;10.44;53.32
69535;BME280;56754;51.568;5.048;2024-01-16T11:50:38;100804.25;;;10.41;51.89
69535;BME280;56754;51.568;5.048;2024-01-16T11:53:03;100800.34;;;10.38;52.39
69535;BME280;56754;51.568;5.048;2024-01-16T11:55:33;100791.34;;;10.34;52.49
69535;BME280;56754;51.568;5.048;2024-01-16T11:58:33;100793.53;;;10.32;53.39
69535;BME280;56754;51.568;5.048;2024-01-16T12:01:01;100789.13;;;10.28;51.92
69535;BME280;56754;51.568;5.048;2024-01-16T12:03:26;100786.53;;;10.22;52.42
69535;BME280;56754;51.568;5.048;2024-01-16T12:05:58;100776.66;;;10.23;52.99
69535;BME280;56754;51.568;5.048;2024-01-16T12:08:24;100780.75;;;10.20;52.81
69535;BME280;56754;51.568;5.048;2024-01-16T12:10:49;100774.59;;;10.20;52.54
69535;BME280;56754;51.568;5.048;2024-01-16T12:13:15;100772.53;;;10.17;52.91
69535;BME280;56754;51.568;5.048;2024-01-16T12:15:40;100761.06;;;10.16;52.92
69535;BME280;56754;51.568;5.048;2024-01-16T12:18:06;100759.78;;;10.14;51.83
69535;BME280;56754;51.568;5.048;2024-01-16T12:20:33;100752.72;;;10.09;52.26
69535;BME280;56754;51.568;5.048;2024-01-16T12:23:00;100756.16;;;10.10;52.77
69535;BME280;56754;51.568;5.048;2024-01-16T12:25:27;100765.47;;;10.12;52.62
69535;BME280;56754;51.568;5.048;2024-01-16T12:30:21;100758.72;;;10.15;52.60
69535;BME280;56754;51.568;5.048;2024-01-16T12:32:46;100761.69;;;10.13;52.12
69535;BME280;56754;51.568;5.048;2024-01-16T12:35:12;100757.13;;;10.14;52.47
69535;BME280;56754;51.568;5.048;2024-01-16T12:37:37;100754.00;;;10.12;52.28
69535;BME280;56754;51.568;5.048;2024-01-16T12:40:02;100751.94;;;10.09;52.45
69535;BME280;56754;51.568;5.048;2024-01-16T12:42:28;100756.47;;;10.08;52.17
69535;BME280;56754;51.568;5.048;2024-01-16T12:44:53;100753.13;;;10.02;51.61
69535;BME280;56754;51.568;5.048;2024-01-16T12:47:18;100746.56;;;10.00;52.33
69535;BME280;56754;51.568;5.048;2024-01-16T12:49:44;100745.75;;;9.99;52.50
69535;BME280;56754;51.568;5.048;2024-01-16T12:52:21;100744.66;;;10.00;53.05
69535;BME280;56754;51.568;5.048;2024-01-16T12:54:47;100737.59;;;10.05;52.88
69535;BME280;56754;51.568;5.048;2024-01-16T12:57:17;100728.50;;;10.06;52.84
69535;BME280;56754;51.568;5.048;2024-01-16T12:59:43;100722.84;;;10.07;52.56